createdAt,value
2022-11-18T00:01:34.179Z,8.13
2022-11-18T00:04:02.620Z,8.09
2022-11-18T00:06:31.583Z,8.04
2022-11-18T00:09:01.321Z,7.98
2022-11-18T00:11:47.884Z,7.95
2022-11-18T00:14:21.399Z,7.97
2022-11-18T00:16:53.702Z,8.00
2022-11-18T00:19:23.673Z,8.01
2022-11-18T00:21:52.307Z,8.01
2022-11-18T00:24:20.891Z,8.04
2022-11-18T00:26:49.735Z,8.09
2022-11-18T00:29:19.278Z,8.12
2022-11-18T00:31:48.375Z,8.13
2022-11-18T00:34:19.564Z,8.15
2022-11-18T00:36:48.914Z,8.16
2022-11-18T00:39:18.837Z,8.18
2022-11-18T00:42:06.222Z,8.19
2022-11-18T00:44:37.163Z,8.20
2022-11-18T00:47:06.141Z,8.22
2022-11-18T00:49:35.851Z,8.25
2022-11-18T00:52:04.528Z,8.26
2022-11-18T00:54:32.985Z,8.26
2022-11-18T00:57:01.346Z,8.26
2022-11-18T00:59:29.700Z,8.27
2022-11-18T01:01:58.250Z,8.30
2022-11-18T01:04:26.542Z,8.32
2022-11-18T01:06:56.279Z,8.32
2022-11-18T01:09:24.607Z,8.32
2022-11-18T01:12:10.598Z,8.32
2022-11-18T01:14:38.991Z,8.31
2022-11-18T01:17:07.377Z,8.30
2022-11-18T01:19:36.387Z,8.31
2022-11-18T01:22:06.524Z,8.29
2022-11-18T01:24:35.463Z,8.29
2022-11-18T01:27:03.940Z,8.27
2022-11-18T01:29:32.260Z,8.21
2022-11-18T01:34:48.968Z,8.15
2022-11-18T01:37:18.649Z,8.16
2022-11-18T01:39:47.028Z,8.17
2022-11-18T01:42:17.663Z,8.18
2022-11-18T01:44:59.227Z,8.17
2022-11-18T01:47:31.095Z,8.15
2022-11-18T01:50:00.732Z,8.15
2022-11-18T01:52:31.086Z,8.13
2022-11-18T01:55:07.374Z,8.12
2022-11-18T01:57:36.977Z,8.09
2022-11-18T02:00:07.729Z,8.05
2022-11-18T02:02:38.380Z,8.04
2022-11-18T02:05:10.086Z,7.99
2022-11-18T02:07:43.021Z,7.97
2022-11-18T02:10:20.026Z,7.90
2022-11-18T02:12:49.038Z,7.88
2022-11-18T02:15:18.558Z,7.85
2022-11-18T02:17:56.678Z,7.81
2022-11-18T02:20:37.390Z,7.81
2022-11-18T02:23:45.430Z,7.81
2022-11-18T02:26:42.635Z,7.83
2022-11-18T02:29:17.214Z,7.83
2022-11-18T02:31:52.146Z,7.86
2022-11-18T02:34:33.448Z,7.90
2022-11-18T02:37:08.539Z,7.89
2022-11-18T02:39:43.635Z,7.91
2022-11-18T02:42:16.175Z,7.89
2022-11-18T02:44:53.107Z,7.89
2022-11-18T02:47:23.726Z,7.91
2022-11-18T02:49:57.000Z,7.93
2022-11-18T02:52:27.908Z,7.95
2022-11-18T02:54:57.523Z,7.94
2022-11-18T02:57:27.382Z,7.91
2022-11-18T02:59:57.103Z,7.89
2022-11-18T03:02:25.449Z,7.92
2022-11-18T03:04:59.370Z,7.95
2022-11-18T03:07:31.784Z,7.96
2022-11-18T03:10:02.309Z,7.96
2022-11-18T03:12:40.803Z,7.98
2022-11-18T03:15:19.578Z,7.97
2022-11-18T03:17:57.581Z,7.88
2022-11-18T03:20:30.244Z,7.90
2022-11-18T03:23:05.662Z,7.94
2022-11-18T03:25:39.364Z,7.96
2022-11-18T03:28:15.703Z,7.99
2022-11-18T03:30:51.828Z,8.00
2022-11-18T03:33:23.845Z,8.01
2022-11-18T03:35:54.494Z,7.98
2022-11-18T03:38:28.942Z,7.97
2022-11-18T03:41:02.511Z,7.98
2022-11-18T03:43:36.036Z,7.97
2022-11-18T03:46:10.661Z,7.93
2022-11-18T03:48:45.647Z,7.92
2022-11-18T03:51:18.375Z,7.93
2022-11-18T03:53:53.512Z,7.87
2022-11-18T03:56:27.663Z,7.83
2022-11-18T03:59:03.168Z,7.78
2022-11-18T04:01:39.114Z,7.74
2022-11-18T04:04:08.327Z,7.73
2022-11-18T04:06:42.346Z,7.70
2022-11-18T04:09:14.882Z,7.71
2022-11-18T04:12:03.716Z,7.71
2022-11-18T04:14:33.732Z,7.69
2022-11-18T04:17:09.189Z,7.71
2022-11-18T04:19:37.809Z,7.73
2022-11-18T04:22:06.955Z,7.76
2022-11-18T04:24:35.359Z,7.79
2022-11-18T04:27:04.526Z,7.80
2022-11-18T04:29:34.383Z,7.82
2022-11-18T04:32:04.991Z,7.85
2022-11-18T04:34:33.756Z,7.89
2022-11-18T04:37:02.260Z,7.92
2022-11-18T04:39:30.727Z,7.92
2022-11-18T04:41:59.143Z,7.92
2022-11-18T04:44:29.779Z,7.90
2022-11-18T04:46:59.392Z,7.91
2022-11-18T04:49:30.039Z,7.90
2022-11-18T04:51:58.786Z,7.91
2022-11-18T04:54:27.978Z,7.94
2022-11-18T04:56:57.427Z,7.92
2022-11-18T04:59:28.319Z,7.89
2022-11-18T05:01:57.393Z,7.88
2022-11-18T05:04:27.680Z,7.88
2022-11-18T05:06:57.718Z,7.89
2022-11-18T05:09:31.492Z,7.92
2022-11-18T05:12:18.674Z,7.93
2022-11-18T05:14:50.524Z,7.92
2022-11-18T05:17:19.798Z,7.90
2022-11-18T05:19:48.282Z,7.89
2022-11-18T05:22:18.143Z,7.87
2022-11-18T05:24:46.725Z,7.83
2022-11-18T05:27:16.119Z,7.84
2022-11-18T05:29:44.527Z,7.86
2022-11-18T05:32:13.034Z,7.87
2022-11-18T05:34:42.249Z,7.90
2022-11-18T05:37:10.791Z,7.95
2022-11-18T05:39:40.633Z,7.97
2022-11-18T05:42:26.634Z,8.01
2022-11-18T05:44:58.421Z,8.03
2022-11-18T05:47:27.484Z,8.04
2022-11-18T05:49:55.889Z,8.06
2022-11-18T05:52:24.239Z,8.05
2022-11-18T05:54:54.714Z,8.06
2022-11-18T05:57:23.065Z,8.08
2022-11-18T05:59:51.417Z,8.06
2022-11-18T06:02:24.053Z,8.07
2022-11-18T06:04:56.215Z,8.06
2022-11-18T06:07:27.153Z,8.05
2022-11-18T06:10:05.474Z,8.06
2022-11-18T06:12:40.943Z,8.07
2022-11-18T06:15:16.332Z,8.08
2022-11-18T06:17:48.066Z,8.06
2022-11-18T06:20:19.201Z,8.00
2022-11-18T06:22:50.143Z,7.95
2022-11-18T06:25:20.294Z,7.89
2022-11-18T06:27:50.784Z,7.84
2022-11-18T06:30:19.273Z,7.77
2022-11-18T06:32:47.834Z,7.72
2022-11-18T06:35:16.724Z,7.72
2022-11-18T06:37:45.124Z,7.71
2022-11-18T06:40:14.339Z,7.69
2022-11-18T06:43:01.816Z,7.68
2022-11-18T06:45:30.876Z,7.67
2022-11-18T06:48:00.386Z,7.68
2022-11-18T06:50:28.971Z,7.68
2022-11-18T06:52:57.704Z,7.71
2022-11-18T06:55:26.419Z,7.71
2022-11-18T06:57:58.381Z,7.71
2022-11-18T07:00:26.819Z,7.73
2022-11-18T07:02:55.259Z,7.76
2022-11-18T07:05:23.639Z,7.79
2022-11-18T07:07:51.985Z,7.83
2022-11-18T07:10:20.387Z,7.87
2022-11-18T07:12:48.775Z,7.89
2022-11-18T07:15:18.724Z,7.92
2022-11-18T07:17:56.467Z,7.92
2022-11-18T07:20:24.815Z,7.96
2022-11-18T07:22:53.880Z,8.00
2022-11-18T07:25:22.251Z,8.03
2022-11-18T07:27:50.631Z,8.07
2022-11-18T07:30:21.896Z,8.09
2022-11-18T07:32:50.508Z,8.11
2022-11-18T07:35:18.960Z,8.13
2022-11-18T07:37:50.050Z,8.14
2022-11-18T07:40:18.990Z,8.16
2022-11-18T07:42:47.319Z,8.15
2022-11-18T07:45:15.691Z,8.21
2022-11-18T07:47:45.359Z,8.28
2022-11-18T07:50:13.896Z,8.34
2022-11-18T07:52:42.252Z,8.42
2022-11-18T07:55:10.884Z,8.49
2022-11-18T07:57:39.255Z,8.53
2022-11-18T08:00:09.260Z,8.57
2022-11-18T08:02:37.647Z,8.63
2022-11-18T08:05:11.081Z,8.68
2022-11-18T08:07:43.222Z,8.73
2022-11-18T08:10:11.594Z,8.80
2022-11-18T08:12:40.787Z,8.85
2022-11-18T08:15:10.215Z,8.89
2022-11-18T08:17:38.687Z,8.92
2022-11-18T08:20:09.599Z,8.95
2022-11-18T08:22:37.945Z,8.99
2022-11-18T08:25:07.139Z,9.00
2022-11-18T08:27:35.696Z,9.02
2022-11-18T08:30:04.863Z,9.06
2022-11-18T08:32:33.263Z,9.09
2022-11-18T08:35:04.335Z,9.11
2022-11-18T08:37:40.272Z,9.13
2022-11-18T08:40:10.071Z,9.14
2022-11-18T08:42:39.091Z,9.14
2022-11-18T08:45:09.469Z,9.15
2022-11-18T08:47:38.710Z,9.17
2022-11-18T08:50:09.367Z,9.20
2022-11-18T08:52:37.822Z,9.23
2022-11-18T08:55:08.154Z,9.26
2022-11-18T08:57:36.530Z,9.33
2022-11-18T09:00:05.438Z,9.35
2022-11-18T09:02:34.005Z,9.38
2022-11-18T09:05:02.393Z,9.39
2022-11-18T09:07:30.895Z,9.39
2022-11-18T09:09:59.365Z,9.39
2022-11-18T09:12:29.459Z,9.40
2022-11-18T09:15:14.759Z,9.38
2022-11-18T09:17:43.695Z,9.37
2022-11-18T09:20:12.522Z,9.38
2022-11-18T09:22:41.018Z,9.38
2022-11-18T09:25:10.457Z,9.39
2022-11-18T09:27:40.179Z,9.41
2022-11-18T09:30:09.750Z,9.40
2022-11-18T09:32:38.995Z,9.42
2022-11-18T09:35:07.491Z,9.44
2022-11-18T09:37:35.817Z,9.45
2022-11-18T09:40:04.640Z,9.46
2022-11-18T09:42:51.903Z,9.47
2022-11-18T09:45:25.802Z,9.49
2022-11-18T09:47:59.595Z,9.50
2022-11-18T09:53:21.088Z,9.53
2022-11-18T09:55:50.704Z,9.57
2022-11-18T09:58:28.260Z,9.60
2022-11-18T10:00:56.650Z,9.62
2022-11-18T10:03:29.707Z,9.66
2022-11-18T10:06:02.879Z,9.70
2022-11-18T10:08:37.711Z,9.75
2022-11-18T10:11:13.579Z,9.81
2022-11-18T10:13:55.779Z,9.86
2022-11-18T10:16:36.840Z,9.91
2022-11-18T10:19:20.403Z,9.93
2022-11-18T10:21:58.202Z,9.98
2022-11-18T10:24:31.450Z,10.03
2022-11-18T10:27:01.444Z,10.11
2022-11-18T10:29:31.147Z,10.14
2022-11-18T10:32:06.333Z,10.15
2022-11-18T10:34:36.434Z,10.15
2022-11-18T10:37:06.919Z,10.16
2022-11-18T10:39:53.427Z,10.14
2022-11-18T10:42:29.332Z,10.11
2022-11-18T10:45:17.927Z,10.09
2022-11-18T10:47:59.227Z,10.11
2022-11-18T10:50:35.459Z,10.10
2022-11-18T10:53:05.202Z,10.09
2022-11-18T10:55:34.671Z,10.12
2022-11-18T10:58:09.002Z,10.11
2022-11-18T11:00:47.908Z,10.12
2022-11-18T11:03:28.295Z,10.11
2022-11-18T11:06:39.133Z,10.12
2022-11-18T11:09:10.217Z,10.12
2022-11-18T11:11:43.276Z,10.12
2022-11-18T11:14:22.596Z,10.08
2022-11-18T11:17:00.018Z,10.03
2022-11-18T11:19:38.142Z,10.00
2022-11-18T11:22:11.367Z,9.99
2022-11-18T11:24:40.060Z,9.99
2022-11-18T11:30:19.315Z,9.96
2022-11-18T11:33:13.935Z,10.01
2022-11-18T11:35:51.736Z,10.05
2022-11-18T11:38:35.438Z,10.06
2022-11-18T11:41:13.100Z,10.05
2022-11-18T11:43:55.858Z,10.07
2022-11-18T11:46:45.601Z,10.08
2022-11-18T11:49:20.569Z,10.09
2022-11-18T11:51:53.296Z,10.10
2022-11-18T11:54:38.610Z,10.08
2022-11-18T11:57:17.659Z,10.05
2022-11-18T11:59:53.811Z,10.03
2022-11-18T12:02:42.756Z,9.99
2022-11-18T12:05:21.457Z,9.97
2022-11-18T12:07:55.153Z,9.92
2022-11-18T12:10:37.087Z,9.88
2022-11-18T12:13:22.471Z,9.83
2022-11-18T12:16:02.990Z,9.80
2022-11-18T12:18:39.346Z,9.81
2022-11-18T12:21:09.244Z,9.80
2022-11-18T12:23:37.602Z,9.78
2022-11-18T12:26:08.904Z,9.77
2022-11-18T12:28:41.192Z,9.74
2022-11-18T12:31:33.375Z,9.70
2022-11-18T12:34:05.689Z,9.69
2022-11-18T12:36:36.927Z,9.70
2022-11-18T12:39:50.777Z,9.69
2022-11-18T12:43:00.215Z,9.65
2022-11-18T12:45:59.348Z,9.62
2022-11-18T12:48:39.623Z,9.58
2022-11-18T12:51:44.871Z,9.54
2022-11-18T12:54:25.814Z,9.52
2022-11-18T12:56:55.071Z,9.51
2022-11-18T12:59:32.032Z,9.47
2022-11-18T13:02:22.462Z,9.43
2022-11-18T13:05:11.434Z,9.39
2022-11-18T13:08:04.110Z,9.36
2022-11-18T13:10:35.724Z,9.35
2022-11-18T13:13:04.618Z,9.35
2022-11-18T13:15:50.543Z,9.34
2022-11-18T13:18:21.397Z,9.29
2022-11-18T13:20:57.668Z,9.22
2022-11-18T13:23:48.499Z,9.18
2022-11-18T13:26:22.298Z,9.15
2022-11-18T13:29:22.327Z,9.11
2022-11-18T13:32:02.033Z,9.09
2022-11-18T13:34:32.606Z,9.06
2022-11-18T13:37:02.031Z,9.09
2022-11-18T13:39:34.075Z,9.05
2022-11-18T13:42:04.748Z,8.96
2022-11-18T13:44:35.738Z,8.91
2022-11-18T13:47:18.031Z,8.85
2022-11-18T13:49:54.647Z,8.76
2022-11-18T13:52:27.603Z,8.61
2022-11-18T13:55:00.185Z,8.23
2022-11-18T13:57:30.207Z,8.04
2022-11-18T14:00:05.476Z,7.96
2022-11-18T14:02:40.972Z,7.92
2022-11-18T14:05:21.708Z,7.91
2022-11-18T14:08:02.825Z,7.82
2022-11-18T14:10:39.309Z,7.80
2022-11-18T14:13:19.051Z,7.79
2022-11-18T14:15:47.570Z,7.78
2022-11-18T14:18:21.482Z,7.78
2022-11-18T14:20:54.518Z,7.81
2022-11-18T14:23:28.721Z,7.87
2022-11-18T14:26:00.930Z,7.85
2022-11-18T14:28:33.764Z,7.83
2022-11-18T14:31:05.379Z,7.87
2022-11-18T14:33:36.732Z,7.91
2022-11-18T14:36:12.213Z,7.94
2022-11-18T14:39:11.249Z,7.91
2022-11-18T14:41:48.814Z,7.87
2022-11-18T14:44:17.876Z,7.85
2022-11-18T14:46:49.312Z,7.86
2022-11-18T14:49:22.087Z,7.87
2022-11-18T14:51:51.784Z,7.87
2022-11-18T14:54:26.971Z,7.82
2022-11-18T14:56:59.285Z,7.79
2022-11-18T14:59:27.730Z,7.77
2022-11-18T15:01:58.989Z,7.80
2022-11-18T15:04:30.602Z,7.72
2022-11-18T15:06:59.024Z,7.69
2022-11-18T15:09:27.396Z,7.68
2022-11-18T15:11:57.299Z,7.64
2022-11-18T15:14:25.763Z,7.58
2022-11-18T15:16:54.301Z,7.54
2022-11-18T15:19:22.664Z,7.49
2022-11-18T15:21:51.002Z,7.49
2022-11-18T15:24:19.801Z,7.49
2022-11-18T15:26:49.720Z,7.48
2022-11-18T15:29:21.107Z,7.48
2022-11-18T15:31:49.844Z,7.46
2022-11-18T15:34:20.285Z,7.41
2022-11-18T15:36:49.696Z,7.43
2022-11-18T15:39:18.048Z,7.45
2022-11-18T15:41:46.465Z,7.49
2022-11-18T15:44:14.798Z,7.54
2022-11-18T15:46:45.459Z,7.52
2022-11-18T15:49:15.449Z,7.52
2022-11-18T15:51:43.793Z,7.53
2022-11-18T15:54:12.174Z,7.57
2022-11-18T15:56:41.822Z,7.59
2022-11-18T15:59:11.850Z,7.62
2022-11-18T16:01:42.103Z,7.63
2022-11-18T16:04:14.351Z,7.67
2022-11-18T16:06:44.297Z,7.65
2022-11-18T16:09:13.838Z,7.65
2022-11-18T16:12:00.327Z,7.69
2022-11-18T16:14:28.671Z,7.76
2022-11-18T16:16:57.545Z,7.72
2022-11-18T16:19:31.397Z,7.62
2022-11-18T16:21:59.775Z,7.52
2022-11-18T16:24:30.539Z,7.46
2022-11-18T16:26:58.894Z,7.41
2022-11-18T16:29:27.342Z,7.40
2022-11-18T16:31:55.053Z,7.36
2022-11-18T16:34:25.596Z,7.29
2022-11-18T16:36:57.187Z,7.22
2022-11-18T16:39:28.314Z,7.20
2022-11-18T16:42:03.851Z,7.13
2022-11-18T16:44:36.570Z,7.08
2022-11-18T16:47:10.817Z,7.05
2022-11-18T16:49:43.954Z,7.08
2022-11-18T16:52:13.782Z,7.07
2022-11-18T16:54:45.638Z,7.15
2022-11-18T16:57:15.211Z,7.20
2022-11-18T16:59:43.906Z,7.24
2022-11-18T17:02:13.896Z,7.29
2022-11-18T17:04:42.377Z,7.32
2022-11-18T17:07:10.798Z,7.35
2022-11-18T17:09:40.833Z,7.36
2022-11-18T17:12:09.498Z,7.38
2022-11-18T17:14:38.559Z,7.39
2022-11-18T17:17:07.601Z,7.36
2022-11-18T17:19:36.573Z,7.34
2022-11-18T17:22:05.048Z,7.30
2022-11-18T17:24:33.507Z,7.28
2022-11-18T17:27:31.966Z,7.28
2022-11-18T17:30:03.275Z,7.29
2022-11-18T17:32:31.942Z,7.29
2022-11-18T17:35:00.452Z,7.31
2022-11-18T17:37:30.059Z,7.37
2022-11-18T17:39:58.433Z,7.41
2022-11-18T17:42:28.251Z,7.46
2022-11-18T17:44:56.602Z,7.48
2022-11-18T17:47:24.929Z,7.53
2022-11-18T17:49:53.284Z,7.57
2022-11-18T17:52:21.690Z,7.60
2022-11-18T17:54:50.030Z,7.61
2022-11-18T17:57:18.381Z,7.63
2022-11-18T17:59:48.110Z,7.61
2022-11-18T18:02:16.534Z,7.60
2022-11-18T18:04:44.842Z,7.56
2022-11-18T18:07:13.230Z,7.56
2022-11-18T18:09:41.726Z,7.58
2022-11-18T18:12:24.089Z,7.59
2022-11-18T18:14:54.034Z,7.58
2022-11-18T18:17:22.592Z,7.57
2022-11-18T18:19:51.021Z,7.55
2022-11-18T18:22:19.350Z,7.48
2022-11-18T18:24:47.771Z,7.42
2022-11-18T18:27:16.275Z,7.32
2022-11-18T18:29:44.882Z,7.24
2022-11-18T18:32:14.578Z,7.23
2022-11-18T18:34:43.005Z,7.20
2022-11-18T18:37:11.311Z,7.19
2022-11-18T18:39:39.685Z,7.19
2022-11-18T18:42:08.281Z,7.19
2022-11-18T18:44:54.329Z,7.15
2022-11-18T18:47:24.121Z,7.12
2022-11-18T18:49:52.445Z,7.12
2022-11-18T18:52:20.946Z,7.13
2022-11-18T18:54:49.286Z,7.13
2022-11-18T18:57:17.642Z,7.09
2022-11-18T18:59:45.984Z,7.09
2022-11-18T19:02:14.465Z,7.10
2022-11-18T19:04:44.936Z,7.12
2022-11-18T19:07:13.336Z,7.12
2022-11-18T19:09:41.707Z,7.15
2022-11-18T19:12:28.617Z,7.16
2022-11-18T19:14:57.025Z,7.16
2022-11-18T19:17:25.458Z,7.15
2022-11-18T19:20:12.712Z,7.15
2022-11-18T19:22:41.064Z,7.13
2022-11-18T19:25:10.294Z,7.13
2022-11-18T19:27:40.210Z,7.14
2022-11-18T19:30:10.868Z,7.13
2022-11-18T19:32:40.395Z,7.13
2022-11-18T19:35:11.157Z,7.13
2022-11-18T19:37:39.673Z,7.13
2022-11-18T19:40:10.612Z,7.11
2022-11-18T19:42:39.597Z,7.12
2022-11-18T19:45:09.319Z,7.13
2022-11-18T19:47:38.133Z,7.11
2022-11-18T19:50:07.818Z,7.11
2022-11-18T19:52:37.553Z,7.09
2022-11-18T19:55:07.916Z,7.08
2022-11-18T19:57:36.384Z,7.06
2022-11-18T20:00:05.393Z,7.02
2022-11-18T20:02:33.704Z,6.99
2022-11-18T20:05:19.793Z,6.97
2022-11-18T20:07:49.558Z,6.95
2022-11-18T20:10:18.137Z,6.95
2022-11-18T20:12:46.644Z,6.96
2022-11-18T20:15:15.065Z,6.96
2022-11-18T20:17:43.733Z,6.94
2022-11-18T20:20:12.622Z,6.95
2022-11-18T20:22:41.078Z,6.96
2022-11-18T20:25:12.448Z,6.95
2022-11-18T20:27:40.914Z,6.96
2022-11-18T20:30:10.693Z,6.96
2022-11-18T20:32:39.044Z,6.97
2022-11-18T20:35:07.956Z,6.95
2022-11-18T20:37:36.523Z,6.89
2022-11-18T20:40:05.363Z,6.85
2022-11-18T20:42:53.072Z,6.83
2022-11-18T20:45:21.529Z,6.83
2022-11-18T20:47:50.031Z,6.82
2022-11-18T20:50:18.461Z,6.83
2022-11-18T20:52:47.261Z,6.84
2022-11-18T20:55:15.873Z,6.83
2022-11-18T20:57:45.626Z,6.82
2022-11-18T21:00:14.598Z,6.82
2022-11-18T21:02:43.045Z,6.80
2022-11-18T21:05:11.443Z,6.80
2022-11-18T21:07:40.094Z,6.80
2022-11-18T21:10:09.845Z,6.79
2022-11-18T21:13:01.740Z,6.79
2022-11-18T21:15:30.573Z,6.80
2022-11-18T21:17:59.133Z,6.81
2022-11-18T21:20:44.938Z,6.83
2022-11-18T21:23:13.808Z,6.82
2022-11-18T21:25:43.224Z,6.84
2022-11-18T21:28:11.749Z,6.87
2022-11-18T21:30:41.702Z,6.89
2022-11-18T21:33:10.002Z,6.93
2022-11-18T21:35:38.469Z,6.96
2022-11-18T21:38:07.129Z,6.98
2022-11-18T21:40:35.449Z,6.99
2022-11-18T21:43:03.795Z,7.00
2022-11-18T21:45:34.310Z,7.02
2022-11-18T21:48:04.106Z,7.04
2022-11-18T21:50:32.446Z,7.04
2022-11-18T21:53:00.833Z,7.02
2022-11-18T21:55:29.522Z,6.99
2022-11-18T21:58:02.807Z,6.98
2022-11-18T22:00:32.530Z,6.99
2022-11-18T22:03:00.908Z,6.96
2022-11-18T22:05:30.681Z,6.96
2022-11-18T22:07:58.984Z,6.96
2022-11-18T22:10:27.359Z,6.94
2022-11-18T22:12:55.924Z,6.95
2022-11-18T22:15:25.156Z,6.96
2022-11-18T22:17:53.742Z,6.97
2022-11-18T22:20:22.122Z,6.98
2022-11-18T22:22:51.857Z,6.97
2022-11-18T22:25:20.798Z,6.96
2022-11-18T22:27:49.215Z,6.99
2022-11-18T22:30:17.887Z,7.01
2022-11-18T22:32:46.236Z,7.00
2022-11-18T22:35:14.716Z,6.99
2022-11-18T22:37:43.359Z,7.00
2022-11-18T22:40:14.235Z,7.00
2022-11-18T22:42:51.670Z,6.96
2022-11-18T22:45:20.025Z,6.95
2022-11-18T22:47:48.339Z,6.94
2022-11-18T22:50:17.304Z,6.93
2022-11-18T22:52:45.628Z,6.89
2022-11-18T22:55:15.367Z,6.88
2022-11-18T22:57:44.498Z,6.82
2022-11-18T23:00:14.292Z,6.73
2022-11-18T23:02:42.690Z,6.65
2022-11-18T23:05:11.803Z,6.63
2022-11-18T23:07:40.216Z,6.63
2022-11-18T23:10:09.094Z,6.63
2022-11-18T23:12:56.111Z,6.63
2022-11-18T23:15:24.521Z,6.63
2022-11-18T23:17:52.895Z,6.64
2022-11-18T23:20:24.452Z,6.64
2022-11-18T23:22:53.606Z,6.63
2022-11-18T23:25:22.025Z,6.63
2022-11-18T23:27:54.580Z,6.63
2022-11-18T23:30:23.399Z,6.61
2022-11-18T23:32:53.802Z,6.58
2022-11-18T23:35:22.177Z,6.55
2022-11-18T23:37:50.505Z,6.56
2022-11-18T23:40:19.277Z,6.56
2022-11-18T23:42:47.619Z,6.54
2022-11-18T23:45:17.557Z,6.53
2022-11-18T23:47:45.870Z,6.53
2022-11-18T23:50:14.303Z,6.51
2022-11-18T23:52:46.508Z,6.52
2022-11-18T23:55:14.970Z,6.50
2022-11-18T23:57:43.292Z,6.47
